sensor_id;sensor_type;location;lat;lon;timestamp;P1;durP1;ratioP1;P2;durP2;ratioP2
21000;SDS011;10658;50.920;12.238;2022-11-20T00:00:40;22.50;;;11.90;;
21000;SDS011;10658;50.920;12.238;2022-11-20T00:04:41;23.03;;;10.87;;
21000;SDS011;10658;50.920;12.238;2022-11-20T00:08:42;20.10;;;10.53;;
21000;SDS011;10658;50.920;12.238;2022-11-20T00:12:43;24.73;;;11.60;;
21000;SDS011;10658;50.920;12.238;2022-11-20T00:16:45;22.93;;;12.10;;
21000;SDS011;10658;50.920;12.238;2022-11-20T00:20:48;21.47;;;10.43;;
21000;SDS011;10658;50.920;12.238;2022-11-20T00:24:49;18.20;;;10.30;;
21000;SDS011;10658;50.920;12.238;2022-11-20T00:28:50;25.63;;;12.63;;
21000;SDS011;10658;50.920;12.238;2022-11-20T00:32:57;19.40;;;11.30;;
21000;SDS011;10658;50.920;12.238;2022-11-20T00:36:58;23.17;;;11.70;;
21000;SDS011;10658;50.920;12.238;2022-11-20T00:41:00;22.00;;;11.53;;
21000;SDS011;10658;50.920;12.238;2022-11-20T00:45:03;19.83;;;11.07;;
21000;SDS011;10658;50.920;12.238;2022-11-20T00:49:04;26.60;;;12.73;;
21000;SDS011;10658;50.920;12.238;2022-11-20T00:53:06;29.53;;;12.43;;
21000;SDS011;10658;50.920;12.238;2022-11-20T00:57:07;26.67;;;11.40;;
21000;SDS011;10658;50.920;12.238;2022-11-20T01:01:09;27.93;;;12.83;;
21000;SDS011;10658;50.920;12.238;2022-11-20T01:05:14;25.70;;;14.57;;
21000;SDS011;10658;50.920;12.238;2022-11-20T01:09:16;30.23;;;14.10;;
21000;SDS011;10658;50.920;12.238;2022-11-20T01:13:18;32.50;;;14.83;;
21000;SDS011;10658;50.920;12.238;2022-11-20T01:17:37;22.40;;;11.73;;
21000;SDS011;10658;50.920;12.238;2022-11-20T01:21:38;41.10;;;16.93;;
21000;SDS011;10658;50.920;12.238;2022-11-20T01:25:41;36.10;;;15.43;;
21000;SDS011;10658;50.920;12.238;2022-11-20T01:29:42;28.63;;;12.80;;
21000;SDS011;10658;50.920;12.238;2022-11-20T01:33:45;30.57;;;14.23;;
21000;SDS011;10658;50.920;12.238;2022-11-20T01:37:49;30.40;;;13.27;;
21000;SDS011;10658;50.920;12.238;2022-11-20T01:41:51;34.27;;;16.47;;
21000;SDS011;10658;50.920;12.238;2022-11-20T01:46:18;27.50;;;15.00;;
21000;SDS011;10658;50.920;12.238;2022-11-20T01:50:22;28.27;;;12.67;;
21000;SDS011;10658;50.920;12.238;2022-11-20T01:54:28;31.80;;;14.20;;
21000;SDS011;10658;50.920;12.238;2022-11-20T01:58:45;29.53;;;13.47;;
21000;SDS011;10658;50.920;12.238;2022-11-20T02:02:55;26.53;;;13.67;;
21000;SDS011;10658;50.920;12.238;2022-11-20T02:07:00;20.60;;;11.67;;
21000;SDS011;10658;50.920;12.238;2022-11-20T02:11:01;29.40;;;12.40;;
21000;SDS011;10658;50.920;12.238;2022-11-20T02:15:03;24.00;;;11.33;;
21000;SDS011;10658;50.920;12.238;2022-11-20T02:19:07;22.10;;;12.37;;
21000;SDS011;10658;50.920;12.238;2022-11-20T02:23:19;23.43;;;11.10;;
21000;SDS011;10658;50.920;12.238;2022-11-20T02:27:41;24.47;;;10.73;;
21000;SDS011;10658;50.920;12.238;2022-11-20T02:31:42;21.33;;;10.67;;
21000;SDS011;10658;50.920;12.238;2022-11-20T02:35:45;21.53;;;10.90;;
21000;SDS011;10658;50.920;12.238;2022-11-20T02:39:47;20.07;;;9.60;;
21000;SDS011;10658;50.920;12.238;2022-11-20T02:43:50;22.67;;;11.07;;
21000;SDS011;10658;50.920;12.238;2022-11-20T02:47:51;26.03;;;11.63;;
21000;SDS011;10658;50.920;12.238;2022-11-20T02:51:52;20.73;;;10.67;;
21000;SDS011;10658;50.920;12.238;2022-11-20T02:55:53;17.93;;;10.43;;
21000;SDS011;10658;50.920;12.238;2022-11-20T02:59:54;22.33;;;11.60;;
21000;SDS011;10658;50.920;12.238;2022-11-20T03:03:55;21.80;;;10.33;;
21000;SDS011;10658;50.920;12.238;2022-11-20T03:07:57;20.20;;;11.73;;
21000;SDS011;10658;50.920;12.238;2022-11-20T03:11:58;19.87;;;10.07;;
21000;SDS011;10658;50.920;12.238;2022-11-20T03:16:07;21.20;;;10.63;;
21000;SDS011;10658;50.920;12.238;2022-11-20T03:20:09;20.80;;;9.50;;
21000;SDS011;10658;50.920;12.238;2022-11-20T03:24:11;16.97;;;9.77;;
21000;SDS011;10658;50.920;12.238;2022-11-20T03:28:13;19.67;;;9.80;;
21000;SDS011;10658;50.920;12.238;2022-11-20T03:32:14;19.40;;;9.57;;
21000;SDS011;10658;50.920;12.238;2022-11-20T03:36:16;23.80;;;10.13;;
21000;SDS011;10658;50.920;12.238;2022-11-20T03:40:18;22.97;;;10.80;;
21000;SDS011;10658;50.920;12.238;2022-11-20T03:44:20;19.23;;;10.37;;
21000;SDS011;10658;50.920;12.238;2022-11-20T03:48:22;20.43;;;10.00;;
21000;SDS011;10658;50.920;12.238;2022-11-20T03:52:24;18.17;;;8.63;;
21000;SDS011;10658;50.920;12.238;2022-11-20T03:56:26;19.37;;;9.90;;
21000;SDS011;10658;50.920;12.238;2022-11-20T04:00:31;19.50;;;9.77;;
21000;SDS011;10658;50.920;12.238;2022-11-20T04:04:33;23.23;;;10.07;;
21000;SDS011;10658;50.920;12.238;2022-11-20T04:08:35;16.20;;;9.70;;
21000;SDS011;10658;50.920;12.238;2022-11-20T04:12:37;21.50;;;9.33;;
21000;SDS011;10658;50.920;12.238;2022-11-20T04:16:38;19.67;;;9.73;;
21000;SDS011;10658;50.920;12.238;2022-11-20T04:20:39;19.13;;;9.57;;
21000;SDS011;10658;50.920;12.238;2022-11-20T04:24:42;19.67;;;9.83;;
21000;SDS011;10658;50.920;12.238;2022-11-20T04:28:43;15.60;;;8.67;;
21000;SDS011;10658;50.920;12.238;2022-11-20T04:32:44;17.57;;;8.50;;
21000;SDS011;10658;50.920;12.238;2022-11-20T04:36:45;17.70;;;8.97;;
21000;SDS011;10658;50.920;12.238;2022-11-20T04:40:46;17.30;;;9.30;;
21000;SDS011;10658;50.920;12.238;2022-11-20T04:44:47;16.30;;;8.67;;
21000;SDS011;10658;50.920;12.238;2022-11-20T04:48:49;19.07;;;9.30;;
21000;SDS011;10658;50.920;12.238;2022-11-20T04:52:50;17.77;;;8.33;;
21000;SDS011;10658;50.920;12.238;2022-11-20T04:56:51;19.17;;;9.47;;
21000;SDS011;10658;50.920;12.238;2022-11-20T05:00:52;16.40;;;8.47;;
21000;SDS011;10658;50.920;12.238;2022-11-20T05:04:53;20.23;;;9.47;;
21000;SDS011;10658;50.920;12.238;2022-11-20T05:08:54;18.60;;;8.40;;
21000;SDS011;10658;50.920;12.238;2022-11-20T05:12:56;21.53;;;9.23;;
21000;SDS011;10658;50.920;12.238;2022-11-20T05:16:57;17.07;;;8.20;;
21000;SDS011;10658;50.920;12.238;2022-11-20T05:20:59;15.50;;;9.20;;
21000;SDS011;10658;50.920;12.238;2022-11-20T05:25:00;16.90;;;8.60;;
21000;SDS011;10658;50.920;12.238;2022-11-20T05:29:01;14.13;;;8.37;;
21000;SDS011;10658;50.920;12.238;2022-11-20T05:33:02;14.70;;;8.40;;
21000;SDS011;10658;50.920;12.238;2022-11-20T05:37:03;17.83;;;8.37;;
21000;SDS011;10658;50.920;12.238;2022-11-20T05:45:06;20.47;;;8.97;;
21000;SDS011;10658;50.920;12.238;2022-11-20T05:49:08;16.37;;;9.20;;
21000;SDS011;10658;50.920;12.238;2022-11-20T05:53:09;21.03;;;8.70;;
21000;SDS011;10658;50.920;12.238;2022-11-20T05:57:10;21.07;;;9.80;;
21000;SDS011;10658;50.920;12.238;2022-11-20T06:05:17;24.17;;;11.57;;
21000;SDS011;10658;50.920;12.238;2022-11-20T06:09:18;20.60;;;10.07;;
21000;SDS011;10658;50.920;12.238;2022-11-20T06:13:19;15.53;;;7.83;;
21000;SDS011;10658;50.920;12.238;2022-11-20T06:17:22;24.20;;;11.17;;
21000;SDS011;10658;50.920;12.238;2022-11-20T06:21:23;19.93;;;9.87;;
21000;SDS011;10658;50.920;12.238;2022-11-20T06:25:25;23.27;;;10.73;;
21000;SDS011;10658;50.920;12.238;2022-11-20T06:29:26;18.57;;;9.67;;
21000;SDS011;10658;50.920;12.238;2022-11-20T06:33:27;17.33;;;9.37;;
21000;SDS011;10658;50.920;12.238;2022-11-20T06:37:29;25.40;;;10.13;;
21000;SDS011;10658;50.920;12.238;2022-11-20T06:41:30;19.33;;;9.47;;
21000;SDS011;10658;50.920;12.238;2022-11-20T06:45:31;21.63;;;11.33;;
21000;SDS011;10658;50.920;12.238;2022-11-20T06:49:32;22.97;;;10.23;;
21000;SDS011;10658;50.920;12.238;2022-11-20T06:53:35;23.10;;;10.80;;
21000;SDS011;10658;50.920;12.238;2022-11-20T06:57:37;20.57;;;11.47;;
21000;SDS011;10658;50.920;12.238;2022-11-20T07:01:39;20.37;;;8.87;;
21000;SDS011;10658;50.920;12.238;2022-11-20T07:05:40;17.37;;;9.33;;
21000;SDS011;10658;50.920;12.238;2022-11-20T07:09:41;20.97;;;9.90;;
21000;SDS011;10658;50.920;12.238;2022-11-20T07:13:42;19.87;;;9.30;;
21000;SDS011;10658;50.920;12.238;2022-11-20T07:17:43;19.77;;;9.87;;
21000;SDS011;10658;50.920;12.238;2022-11-20T07:21:44;17.40;;;9.77;;
21000;SDS011;10658;50.920;12.238;2022-11-20T07:25:45;19.03;;;9.60;;
21000;SDS011;10658;50.920;12.238;2022-11-20T07:29:47;18.60;;;8.97;;
21000;SDS011;10658;50.920;12.238;2022-11-20T07:33:47;23.13;;;10.33;;
21000;SDS011;10658;50.920;12.238;2022-11-20T07:37:49;20.53;;;9.13;;
21000;SDS011;10658;50.920;12.238;2022-11-20T07:42:12;21.37;;;10.13;;
21000;SDS011;10658;50.920;12.238;2022-11-20T07:46:16;22.87;;;10.13;;
21000;SDS011;10658;50.920;12.238;2022-11-20T07:50:18;17.53;;;9.53;;
21000;SDS011;10658;50.920;12.238;2022-11-20T07:54:20;28.33;;;13.33;;
21000;SDS011;10658;50.920;12.238;2022-11-20T07:58:21;26.93;;;13.23;;
21000;SDS011;10658;50.920;12.238;2022-11-20T08:02:23;28.77;;;12.80;;
21000;SDS011;10658;50.920;12.238;2022-11-20T08:06:24;26.90;;;14.37;;
21000;SDS011;10658;50.920;12.238;2022-11-20T08:10:25;31.20;;;14.33;;
21000;SDS011;10658;50.920;12.238;2022-11-20T08:14:26;28.07;;;13.73;;
21000;SDS011;10658;50.920;12.238;2022-11-20T08:18:27;21.70;;;10.50;;
21000;SDS011;10658;50.920;12.238;2022-11-20T08:22:29;25.33;;;11.97;;
21000;SDS011;10658;50.920;12.238;2022-11-20T08:26:29;21.87;;;11.10;;
21000;SDS011;10658;50.920;12.238;2022-11-20T08:30:31;24.30;;;11.43;;
21000;SDS011;10658;50.920;12.238;2022-11-20T08:34:32;23.57;;;11.50;;
21000;SDS011;10658;50.920;12.238;2022-11-20T08:38:33;23.10;;;11.37;;
21000;SDS011;10658;50.920;12.238;2022-11-20T08:42:34;22.43;;;9.37;;
21000;SDS011;10658;50.920;12.238;2022-11-20T08:50:37;18.63;;;9.43;;
21000;SDS011;10658;50.920;12.238;2022-11-20T08:54:38;19.37;;;9.50;;
21000;SDS011;10658;50.920;12.238;2022-11-20T08:58:39;21.20;;;9.97;;
21000;SDS011;10658;50.920;12.238;2022-11-20T09:02:40;12.40;;;7.10;;
21000;SDS011;10658;50.920;12.238;2022-11-20T09:06:42;20.57;;;10.13;;
21000;SDS011;10658;50.920;12.238;2022-11-20T09:10:43;21.50;;;10.33;;
21000;SDS011;10658;50.920;12.238;2022-11-20T09:14:44;18.57;;;9.80;;
21000;SDS011;10658;50.920;12.238;2022-11-20T09:18:45;18.57;;;9.63;;
21000;SDS011;10658;50.920;12.238;2022-11-20T09:22:46;19.70;;;8.27;;
21000;SDS011;10658;50.920;12.238;2022-11-20T09:26:49;21.90;;;10.80;;
21000;SDS011;10658;50.920;12.238;2022-11-20T09:30:49;22.80;;;12.23;;
21000;SDS011;10658;50.920;12.238;2022-11-20T09:34:50;20.20;;;11.47;;
21000;SDS011;10658;50.920;12.238;2022-11-20T09:38:52;19.63;;;10.50;;
21000;SDS011;10658;50.920;12.238;2022-11-20T09:43:11;24.77;;;12.80;;
21000;SDS011;10658;50.920;12.238;2022-11-20T09:55:56;26.43;;;13.07;;
21000;SDS011;10658;50.920;12.238;2022-11-20T09:59:59;27.40;;;13.80;;
21000;SDS011;10658;50.920;12.238;2022-11-20T10:04:19;24.57;;;13.87;;
21000;SDS011;10658;50.920;12.238;2022-11-20T10:08:21;28.50;;;13.03;;
21000;SDS011;10658;50.920;12.238;2022-11-20T10:16:55;22.00;;;11.33;;
21000;SDS011;10658;50.920;12.238;2022-11-20T10:21:18;22.17;;;11.50;;
21000;SDS011;10658;50.920;12.238;2022-11-20T10:26:02;24.77;;;10.97;;
21000;SDS011;10658;50.920;12.238;2022-11-20T10:30:21;20.88;;;11.00;;
21000;SDS011;10658;50.920;12.238;2022-11-20T10:34:28;22.98;;;12.23;;
21000;SDS011;10658;50.920;12.238;2022-11-20T10:38:43;28.30;;;13.30;;
21000;SDS011;10658;50.920;12.238;2022-11-20T10:43:40;26.67;;;12.33;;
21000;SDS011;10658;50.920;12.238;2022-11-20T10:47:30;22.40;;;11.90;;
21000;SDS011;10658;50.920;12.238;2022-11-20T10:51:39;23.45;;;11.65;;
21000;SDS011;10658;50.920;12.238;2022-11-20T10:55:56;30.65;;;13.77;;
21000;SDS011;10658;50.920;12.238;2022-11-20T11:00:05;26.55;;;12.95;;
21000;SDS011;10658;50.920;12.238;2022-11-20T11:08:44;27.85;;;12.95;;
21000;SDS011;10658;50.920;12.238;2022-11-20T11:12:47;26.00;;;12.70;;
21000;SDS011;10658;50.920;12.238;2022-11-20T11:16:52;20.20;;;12.60;;
21000;SDS011;10658;50.920;12.238;2022-11-20T11:20:55;24.30;;;11.73;;
21000;SDS011;10658;50.920;12.238;2022-11-20T11:24:57;20.67;;;10.48;;
21000;SDS011;10658;50.920;12.238;2022-11-20T11:28:59;18.80;;;9.60;;
21000;SDS011;10658;50.920;12.238;2022-11-20T11:33:11;21.23;;;11.10;;
21000;SDS011;10658;50.920;12.238;2022-11-20T11:37:20;15.85;;;8.20;;
21000;SDS011;10658;50.920;12.238;2022-11-20T11:41:25;16.85;;;9.18;;
21000;SDS011;10658;50.920;12.238;2022-11-20T11:45:33;20.00;;;10.55;;
21000;SDS011;10658;50.920;12.238;2022-11-20T11:49:35;17.58;;;10.75;;
21000;SDS011;10658;50.920;12.238;2022-11-20T11:53:37;16.88;;;9.55;;
21000;SDS011;10658;50.920;12.238;2022-11-20T12:01:48;16.65;;;8.85;;
21000;SDS011;10658;50.920;12.238;2022-11-20T12:05:58;20.73;;;9.43;;
21000;SDS011;10658;50.920;12.238;2022-11-20T12:10:05;21.67;;;11.50;;
21000;SDS011;10658;50.920;12.238;2022-11-20T12:14:20;20.38;;;10.60;;
21000;SDS011;10658;50.920;12.238;2022-11-20T12:18:29;21.02;;;9.18;;
21000;SDS011;10658;50.920;12.238;2022-11-20T12:27:09;16.77;;;8.95;;
21000;SDS011;10658;50.920;12.238;2022-11-20T12:31:37;14.68;;;8.20;;
21000;SDS011;10658;50.920;12.238;2022-11-20T12:41:22;16.88;;;8.18;;
21000;SDS011;10658;50.920;12.238;2022-11-20T12:49:29;15.02;;;7.85;;
21000;SDS011;10658;50.920;12.238;2022-11-20T13:02:38;17.85;;;9.68;;
21000;SDS011;10658;50.920;12.238;2022-11-20T13:06:40;18.95;;;9.30;;
21000;SDS011;10658;50.920;12.238;2022-11-20T13:10:45;18.13;;;9.60;;
21000;SDS011;10658;50.920;12.238;2022-11-20T13:15:33;17.67;;;9.73;;
21000;SDS011;10658;50.920;12.238;2022-11-20T13:19:30;18.75;;;9.75;;
21000;SDS011;10658;50.920;12.238;2022-11-20T13:23:31;16.33;;;7.72;;
21000;SDS011;10658;50.920;12.238;2022-11-20T13:27:34;17.90;;;8.15;;
21000;SDS011;10658;50.920;12.238;2022-11-20T13:31:36;13.63;;;7.50;;
21000;SDS011;10658;50.920;12.238;2022-11-20T13:35:53;15.27;;;8.15;;
21000;SDS011;10658;50.920;12.238;2022-11-20T13:48:32;10.57;;;4.78;;
21000;SDS011;10658;50.920;12.238;2022-11-20T14:01:25;9.00;;;5.15;;
21000;SDS011;10658;50.920;12.238;2022-11-20T14:05:30;13.20;;;6.25;;
21000;SDS011;10658;50.920;12.238;2022-11-20T14:09:54;10.88;;;5.72;;
21000;SDS011;10658;50.920;12.238;2022-11-20T14:18:11;11.57;;;5.65;;
21000;SDS011;10658;50.920;12.238;2022-11-20T14:22:20;12.68;;;7.03;;
21000;SDS011;10658;50.920;12.238;2022-11-20T14:26:23;10.45;;;6.50;;
21000;SDS011;10658;50.920;12.238;2022-11-20T14:30:26;10.68;;;6.60;;
21000;SDS011;10658;50.920;12.238;2022-11-20T14:34:40;12.02;;;5.53;;
21000;SDS011;10658;50.920;12.238;2022-11-20T14:38:43;10.60;;;5.97;;
21000;SDS011;10658;50.920;12.238;2022-11-20T14:42:45;14.50;;;7.13;;
21000;SDS011;10658;50.920;12.238;2022-11-20T14:46:47;14.82;;;7.32;;
21000;SDS011;10658;50.920;12.238;2022-11-20T14:50:49;14.93;;;7.95;;
21000;SDS011;10658;50.920;12.238;2022-11-20T14:54:55;15.13;;;7.95;;
21000;SDS011;10658;50.920;12.238;2022-11-20T14:58:57;14.07;;;7.72;;
21000;SDS011;10658;50.920;12.238;2022-11-20T15:02:58;16.88;;;8.05;;
21000;SDS011;10658;50.920;12.238;2022-11-20T15:06:59;19.77;;;8.90;;
21000;SDS011;10658;50.920;12.238;2022-11-20T15:11:01;26.90;;;13.20;;
21000;SDS011;10658;50.920;12.238;2022-11-20T15:15:02;30.85;;;15.90;;
21000;SDS011;10658;50.920;12.238;2022-11-20T15:19:08;31.65;;;16.98;;
21000;SDS011;10658;50.920;12.238;2022-11-20T15:23:17;25.05;;;12.43;;
21000;SDS011;10658;50.920;12.238;2022-11-20T15:27:19;18.95;;;11.07;;
21000;SDS011;10658;50.920;12.238;2022-11-20T15:31:21;21.75;;;11.48;;
21000;SDS011;10658;50.920;12.238;2022-11-20T15:35:23;21.70;;;10.75;;
21000;SDS011;10658;50.920;12.238;2022-11-20T15:39:24;22.25;;;11.35;;
21000;SDS011;10658;50.920;12.238;2022-11-20T15:43:25;16.38;;;9.65;;
21000;SDS011;10658;50.920;12.238;2022-11-20T15:47:34;25.17;;;10.90;;
21000;SDS011;10658;50.920;12.238;2022-11-20T15:51:37;21.75;;;11.15;;
21000;SDS011;10658;50.920;12.238;2022-11-20T15:55:39;20.27;;;12.60;;
21000;SDS011;10658;50.920;12.238;2022-11-20T15:59:40;20.33;;;10.13;;
21000;SDS011;10658;50.920;12.238;2022-11-20T16:03:42;18.92;;;10.43;;
21000;SDS011;10658;50.920;12.238;2022-11-20T16:07:44;20.15;;;10.00;;
21000;SDS011;10658;50.920;12.238;2022-11-20T16:11:44;18.65;;;11.50;;
21000;SDS011;10658;50.920;12.238;2022-11-20T16:15:53;26.58;;;11.48;;
21000;SDS011;10658;50.920;12.238;2022-11-20T16:19:58;24.67;;;12.63;;
21000;SDS011;10658;50.920;12.238;2022-11-20T16:24:01;29.95;;;15.23;;
21000;SDS011;10658;50.920;12.238;2022-11-20T16:28:04;29.13;;;14.75;;
21000;SDS011;10658;50.920;12.238;2022-11-20T16:32:05;30.70;;;17.73;;
21000;SDS011;10658;50.920;12.238;2022-11-20T16:36:09;33.92;;;17.67;;
21000;SDS011;10658;50.920;12.238;2022-11-20T16:40:11;36.05;;;16.58;;
21000;SDS011;10658;50.920;12.238;2022-11-20T16:44:13;35.03;;;18.25;;
21000;SDS011;10658;50.920;12.238;2022-11-20T16:48:15;34.97;;;18.08;;
21000;SDS011;10658;50.920;12.238;2022-11-20T16:52:16;22.40;;;11.30;;
21000;SDS011;10658;50.920;12.238;2022-11-20T16:56:21;24.70;;;9.48;;
21000;SDS011;10658;50.920;12.238;2022-11-20T17:00:23;19.37;;;10.93;;
21000;SDS011;10658;50.920;12.238;2022-11-20T17:04:24;17.52;;;9.60;;
21000;SDS011;10658;50.920;12.238;2022-11-20T17:08:27;21.10;;;10.90;;
21000;SDS011;10658;50.920;12.238;2022-11-20T17:12:29;17.67;;;9.18;;
21000;SDS011;10658;50.920;12.238;2022-11-20T17:16:30;15.23;;;9.30;;
21000;SDS011;10658;50.920;12.238;2022-11-20T17:20:31;20.23;;;9.50;;
21000;SDS011;10658;50.920;12.238;2022-11-20T17:24:33;22.58;;;10.50;;
21000;SDS011;10658;50.920;12.238;2022-11-20T17:28:35;14.38;;;8.40;;
21000;SDS011;10658;50.920;12.238;2022-11-20T17:32:36;17.60;;;9.25;;
21000;SDS011;10658;50.920;12.238;2022-11-20T17:36:38;19.90;;;8.68;;
21000;SDS011;10658;50.920;12.238;2022-11-20T17:40:41;18.13;;;9.90;;
21000;SDS011;10658;50.920;12.238;2022-11-20T17:45:05;20.85;;;10.60;;
21000;SDS011;10658;50.920;12.238;2022-11-20T17:53:24;20.85;;;10.57;;
21000;SDS011;10658;50.920;12.238;2022-11-20T17:57:29;18.30;;;9.77;;
21000;SDS011;10658;50.920;12.238;2022-11-20T18:01:48;21.33;;;10.60;;
21000;SDS011;10658;50.920;12.238;2022-11-20T18:05:50;20.35;;;10.25;;
21000;SDS011;10658;50.920;12.238;2022-11-20T18:09:51;22.92;;;12.48;;
21000;SDS011;10658;50.920;12.238;2022-11-20T18:13:53;20.35;;;11.68;;
21000;SDS011;10658;50.920;12.238;2022-11-20T18:18:16;30.48;;;16.00;;
21000;SDS011;10658;50.920;12.238;2022-11-20T18:22:17;24.58;;;14.65;;
21000;SDS011;10658;50.920;12.238;2022-11-20T18:26:18;29.50;;;14.10;;
21000;SDS011;10658;50.920;12.238;2022-11-20T18:30:21;34.67;;;17.00;;
21000;SDS011;10658;50.920;12.238;2022-11-20T18:34:22;22.45;;;13.13;;
21000;SDS011;10658;50.920;12.238;2022-11-20T18:38:23;27.42;;;13.13;;
21000;SDS011;10658;50.920;12.238;2022-11-20T18:42:24;24.75;;;15.27;;
21000;SDS011;10658;50.920;12.238;2022-11-20T18:46:44;20.77;;;12.50;;
21000;SDS011;10658;50.920;12.238;2022-11-20T18:50:46;25.00;;;13.68;;
21000;SDS011;10658;50.920;12.238;2022-11-20T18:54:48;22.30;;;12.18;;
21000;SDS011;10658;50.920;12.238;2022-11-20T18:58:50;18.27;;;10.35;;
21000;SDS011;10658;50.920;12.238;2022-11-20T19:02:51;15.75;;;9.35;;
21000;SDS011;10658;50.920;12.238;2022-11-20T19:06:53;20.63;;;9.52;;
21000;SDS011;10658;50.920;12.238;2022-11-20T19:11:04;16.25;;;9.07;;
21000;SDS011;10658;50.920;12.238;2022-11-20T19:15:06;15.60;;;9.13;;
21000;SDS011;10658;50.920;12.238;2022-11-20T19:19:08;17.17;;;8.95;;
21000;SDS011;10658;50.920;12.238;2022-11-20T19:23:09;13.73;;;7.97;;
21000;SDS011;10658;50.920;12.238;2022-11-20T19:27:11;18.92;;;8.68;;
21000;SDS011;10658;50.920;12.238;2022-11-20T19:31:18;20.80;;;9.63;;
21000;SDS011;10658;50.920;12.238;2022-11-20T19:35:23;18.40;;;10.05;;
21000;SDS011;10658;50.920;12.238;2022-11-20T19:39:24;19.35;;;10.68;;
21000;SDS011;10658;50.920;12.238;2022-11-20T19:43:25;19.95;;;9.70;;
21000;SDS011;10658;50.920;12.238;2022-11-20T19:47:26;23.15;;;11.13;;
21000;SDS011;10658;50.920;12.238;2022-11-20T19:51:32;19.75;;;10.52;;
21000;SDS011;10658;50.920;12.238;2022-11-20T19:55:34;22.73;;;11.40;;
21000;SDS011;10658;50.920;12.238;2022-11-20T19:59:35;17.92;;;10.95;;
21000;SDS011;10658;50.920;12.238;2022-11-20T20:03:36;19.25;;;10.85;;
21000;SDS011;10658;50.920;12.238;2022-11-20T20:07:37;20.55;;;10.85;;
21000;SDS011;10658;50.920;12.238;2022-11-20T20:11:43;19.67;;;10.50;;
21000;SDS011;10658;50.920;12.238;2022-11-20T20:15:45;20.92;;;9.30;;
21000;SDS011;10658;50.920;12.238;2022-11-20T20:19:45;34.53;;;15.93;;
21000;SDS011;10658;50.920;12.238;2022-11-20T20:23:49;24.13;;;11.40;;
21000;SDS011;10658;50.920;12.238;2022-11-20T20:27:52;26.55;;;11.65;;
21000;SDS011;10658;50.920;12.238;2022-11-20T20:31:55;25.42;;;11.90;;
21000;SDS011;10658;50.920;12.238;2022-11-20T20:35:57;20.13;;;10.50;;
21000;SDS011;10658;50.920;12.238;2022-11-20T20:39:58;24.00;;;12.02;;
21000;SDS011;10658;50.920;12.238;2022-11-20T20:44:00;23.52;;;12.15;;
21000;SDS011;10658;50.920;12.238;2022-11-20T20:48:20;20.63;;;11.73;;
21000;SDS011;10658;50.920;12.238;2022-11-20T20:52:22;22.30;;;11.73;;
21000;SDS011;10658;50.920;12.238;2022-11-20T20:56:26;23.52;;;11.70;;
21000;SDS011;10658;50.920;12.238;2022-11-20T21:00:27;22.58;;;12.27;;
21000;SDS011;10658;50.920;12.238;2022-11-20T21:04:28;20.23;;;11.93;;
21000;SDS011;10658;50.920;12.238;2022-11-20T21:08:29;25.65;;;12.25;;
21000;SDS011;10658;50.920;12.238;2022-11-20T21:12:30;22.00;;;11.93;;
21000;SDS011;10658;50.920;12.238;2022-11-20T21:16:32;24.80;;;14.23;;
21000;SDS011;10658;50.920;12.238;2022-11-20T21:20:40;25.25;;;14.48;;
21000;SDS011;10658;50.920;12.238;2022-11-20T21:24:59;19.77;;;12.07;;
21000;SDS011;10658;50.920;12.238;2022-11-20T21:29:00;24.65;;;12.93;;
21000;SDS011;10658;50.920;12.238;2022-11-20T21:33:02;28.77;;;14.88;;
21000;SDS011;10658;50.920;12.238;2022-11-20T21:37:03;24.20;;;12.38;;
21000;SDS011;10658;50.920;12.238;2022-11-20T21:41:05;24.90;;;12.77;;
21000;SDS011;10658;50.920;12.238;2022-11-20T21:45:07;23.05;;;11.88;;
21000;SDS011;10658;50.920;12.238;2022-11-20T21:49:09;23.38;;;12.02;;
21000;SDS011;10658;50.920;12.238;2022-11-20T21:53:10;25.23;;;13.32;;
21000;SDS011;10658;50.920;12.238;2022-11-20T21:57:12;25.38;;;13.93;;
21000;SDS011;10658;50.920;12.238;2022-11-20T22:01:17;21.98;;;11.95;;
21000;SDS011;10658;50.920;12.238;2022-11-20T22:05:20;21.52;;;11.32;;
21000;SDS011;10658;50.920;12.238;2022-11-20T22:09:21;20.95;;;10.90;;
21000;SDS011;10658;50.920;12.238;2022-11-20T22:13:25;24.17;;;12.32;;
21000;SDS011;10658;50.920;12.238;2022-11-20T22:17:46;24.90;;;13.18;;
21000;SDS011;10658;50.920;12.238;2022-11-20T22:22:06;23.17;;;11.63;;
21000;SDS011;10658;50.920;12.238;2022-11-20T22:26:08;23.90;;;12.05;;
21000;SDS011;10658;50.920;12.238;2022-11-20T22:30:11;18.00;;;10.82;;
21000;SDS011;10658;50.920;12.238;2022-11-20T22:34:15;19.88;;;10.88;;
21000;SDS011;10658;50.920;12.238;2022-11-20T22:38:16;19.80;;;12.10;;
21000;SDS011;10658;50.920;12.238;2022-11-20T22:42:16;23.40;;;11.88;;
21000;SDS011;10658;50.920;12.238;2022-11-20T22:46:18;23.25;;;12.82;;
21000;SDS011;10658;50.920;12.238;2022-11-20T22:50:19;20.75;;;11.13;;
21000;SDS011;10658;50.920;12.238;2022-11-20T22:54:20;19.80;;;10.32;;
21000;SDS011;10658;50.920;12.238;2022-11-20T22:58:22;18.45;;;10.98;;
21000;SDS011;10658;50.920;12.238;2022-11-20T23:02:24;19.42;;;10.82;;
21000;SDS011;10658;50.920;12.238;2022-11-20T23:06:25;19.45;;;11.55;;
21000;SDS011;10658;50.920;12.238;2022-11-20T23:10:26;19.63;;;12.05;;
21000;SDS011;10658;50.920;12.238;2022-11-20T23:14:29;21.42;;;10.70;;
21000;SDS011;10658;50.920;12.238;2022-11-20T23:18:30;17.08;;;9.65;;
21000;SDS011;10658;50.920;12.238;2022-11-20T23:22:31;20.60;;;10.30;;
21000;SDS011;10658;50.920;12.238;2022-11-20T23:26:33;16.70;;;8.90;;
21000;SDS011;10658;50.920;12.238;2022-11-20T23:30:37;19.60;;;9.55;;
21000;SDS011;10658;50.920;12.238;2022-11-20T23:34:38;18.67;;;8.55;;
21000;SDS011;10658;50.920;12.238;2022-11-20T23:38:39;13.88;;;8.35;;
21000;SDS011;10658;50.920;12.238;2022-11-20T23:42:41;18.42;;;10.15;;
21000;SDS011;10658;50.920;12.238;2022-11-20T23:47:02;16.23;;;9.95;;
21000;SDS011;10658;50.920;12.238;2022-11-20T23:51:03;16.92;;;10.13;;
21000;SDS011;10658;50.920;12.238;2022-11-20T23:55:05;27.73;;;13.70;;
21000;SDS011;10658;50.920;12.238;2022-11-20T23:59:07;32.15;;;16.52;;
